Latest Coastal Weather Observations for Wynyard

IDT60701

Issued at 4:52 am EST Wednesday 20 September 2017 (issued every 10 minutes, with the page automatically refreshed every 10 minutes)

About coastal observations | Map of coastal stations | Coastal observations for TAS | Marine services | Other Formats
Station Details ID: 091107 Name: WYNYARD AIRPORT Lat: -41.00 Lon: 145.73 Height: 12.0 m
Data from the previous 72 hours. | See also: Recent months at Wynyard
Date/Time
EST
Temp
°C
Wind Pressure Rain since
9am
mm
Weather Cloud Vis
km
Sea
Height
m
Swell
Dir  Spd
kts
Gust
kts
hPa Trend Height
m
Period
s
Dir
20/04:30am 3.1 W 4 5 1018.5 - 0.2 - Partly cloudy 10 - - - -
20/04:00am 2.4 W 4 5 1018.5 - 0.2 - Partly cloudy 10 - - - -
20/03:30am 1.7 WNW 5 6 1018.4 - 0.2 - Partly cloudy 10 - - - -
20/03:00am 1.4 WSW 3 4 1018.6 - 0.2 - Mostly clear 10 - - - -
20/02:30am 2.0 WNW 5 6 1018.8 - 0.2 - Partly cloudy 10 - - - -
20/02:00am 2.1 S 5 6 1018.7 - 0.2 - - 10 - - - -
20/01:30am 2.7 CALM 0 0 1019.0 - 0.2 - - 10 - - - -
20/01:00am 3.2 CALM 0 3 1019.1 - 0.2 - - 10 - - - -
20/12:30am 2.7 WSW 8 9 1018.9 - 0.2 - Partly cloudy 10 - - - -
20/12:00am 1.8 SW 6 7 1019.2 - 0.2 - - 9 - - - -
 
Date/Time
EST
Temp
°C
Wind Pressure Rain since
9am
mm
Weather Cloud Vis
km
Sea
Height
m
Swell
Dir  Spd
kts
Gust
kts
hPa Trend Height
m
Period
s
Dir
19/11:30pm 3.6 WNW 5 6 1019.2 - 0.2 - - 10 - - - -
19/11:00pm 4.6 NW 6 7 1019.4 - 0.2 - - 10 - - - -
19/10:30pm 4.3 W 7 8 1019.6 - 0.2 - - 10 - - - -
19/10:00pm 3.6 W 7 8 1019.5 - 0.2 - - 10 - - - -
19/09:30pm 4.2 W 6 7 1019.4 - 0.2 - - 10 - - - -
19/09:00pm 5.2 WNW 6 7 1019.2 - 0.2 - - 10 - - - -
19/08:30pm 5.6 WNW 8 9 1019.0 - 0.2 - - 10 - - - -
19/08:00pm 5.9 W 6 9 1018.8 - 0.2 - - 10 - - - -
19/07:30pm 6.4 W 7 9 1018.6 - 0.2 - Partly cloudy 10 - - - -
19/07:00pm 6.5 WSW 9 11 1018.4 - 0.2 - Partly cloudy 10 - - - -
19/06:30pm 6.9 W 9 11 1018.0 - 0.2 - - 10 - - - -
19/06:00pm 7.8 W 9 11 1017.5 - 0.2 - Mostly clear 10 - - - -
19/05:30pm 8.8 WSW 12 18 1017.2 - 0.2 - Partly cloudy 10 - - - -
19/05:00pm 9.1 W 13 19 1016.6 - 0.2 - Partly cloudy 10 - - - -
19/04:34pm 8.9 WSW 14 25 1016.2 - 0.2 - Partly cloudy 10 - - - -
19/04:30pm 9.3 WSW 15 21 1016.2 - 0.2 - Partly cloudy 10 - - - -
19/04:25pm 9.6 WSW 14 21 1016.1 - 0.2 - Partly cloudy 10 - - - -
19/04:00pm 10.5 WSW 20 30 1015.5 - 0.2 - Partly cloudy 10 - - - -
19/03:57pm 10.5 WSW 19 30 1015.5 - 0.2 - Partly cloudy 10 - - - -
19/03:30pm 10.7 SW 13 20 1015.3 - 0.2 - Partly cloudy 10 - - - -
19/03:00pm 12.4 WSW 13 21 1015.0 - 0.2 - Mostly cloudy 10 - - - -
19/02:30pm 9.9 WSW 18 28 1014.9 - 0.2 - Partly cloudy 10 - - - -
19/02:06pm 12.3 WSW 19 29 1014.4 - 0.2 - Partly cloudy 10 - - - -
19/02:00pm 12.0 WSW 18 23 1014.3 - 0.2 - Partly cloudy 10 - - - -
19/01:36pm 11.7 SW 15 25 1013.9 - 0.2 - Partly cloudy 10 - - - -
19/01:30pm 10.5 SW 15 23 1013.9 - 0.2 - Partly cloudy 10 - - - -
19/01:00pm 10.8 SW 18 28 1013.7 - 0.2 - Partly cloudy 10 - - - -
19/12:30pm 11.3 SW 21 31 1013.7 - 0.2 - Partly cloudy 10 - - - -
19/12:00pm 12.0 WSW 18 33 1013.2 - 0.2 - Mostly clear 10 - - - -
19/11:54am 12.8 WSW 15 26 1013.1 - 0.2 - Partly cloudy 10 - - - -
19/11:30am 10.4 WSW 17 26 1013.3 - 0.2 - Partly cloudy 10 - - - -
19/11:00am 10.6 WSW 13 19 1013.1 - 0.2 - Partly cloudy 10 - - - -
19/10:30am 10.7 W 11 18 1012.9 - 0.2 - Partly cloudy 10 - - - -
19/10:01am 9.2 SW 16 31 1012.7 - 0.0 - Partly cloudy 10 - - - -
19/10:00am 9.6 SW 15 23 1012.7 - 0.0 - Partly cloudy 10 - - - -
19/09:30am 9.7 WSW 17 25 1012.3 - 0.0 - - 10 - - - -
19/09:00am 9.4 WSW 11 16 1012.2 - 8.4 - Mostly cloudy 10 - - - -
19/08:30am 9.2 WSW 14 20 1011.6 - 8.4 - Partly cloudy 10 - - - -
19/08:00am 8.4 WSW 16 21 1010.8 - 8.4 - Partly cloudy 10 - - - -
19/07:45am 8.7 WSW 16 26 1010.4 - 8.4 - Partly cloudy 10 - - - -
19/07:30am 8.5 WSW 16 21 1009.8 - 8.4 - - 10 - - - -
19/07:00am 7.9 WSW 13 17 1009.0 - 8.4 - - 10 - - - -
19/06:30am 7.6 WSW 17 24 1008.0 - 8.4 - - 10 - - - -
19/06:07am 7.9 WSW 16 32 1007.0 - 8.4 - - 10 - - - -
19/06:00am 7.6 WSW 14 20 1006.9 - 8.4 - Mostly clear 10 - - - -
19/05:30am 8.2 WSW 19 25 1006.3 - 8.4 - Partly cloudy 10 - - - -
19/05:06am 8.5 W 18 28 1005.4 - 8.4 - Partly cloudy 10 - - - -
19/05:00am 8.4 W 16 24 1005.2 - 8.4 - Partly cloudy 10 - - - -
19/04:32am 8.8 WSW 18 28 1004.3 - 8.4 - Partly cloudy 10 - - - -
19/04:30am 8.7 WSW 17 25 1004.2 - 8.4 - Partly cloudy 10 - - - -
19/04:11am 8.6 WSW 17 27 1003.5 - 8.4 - Partly cloudy 10 - - - -
19/04:00am 8.9 WSW 20 29 1003.1 - 8.4 - Partly cloudy 10 - - - -
19/03:30am 8.9 W 22 29 1002.4 - 8.4 - Partly cloudy 10 - - - -
19/03:05am 8.9 WSW 16 26 1002.3 - 8.4 - Partly cloudy 10 - - - -
19/03:02am 9.2 WSW 16 23 1002.2 - 8.4 - Partly cloudy 10 - - - -
19/03:00am 9.2 W 16 23 1002.2 - 8.4 - Cloudy 10 - - - -
19/02:45am 9.5 W 18 24 1001.9 - 8.4 - Partly cloudy 5 - - - -
19/02:30am 9.6 WNW 13 21 1001.6 - 8.4 - Partly cloudy 10 - - - -
19/02:00am 9.8 WNW 14 18 1001.6 - 8.4 - Partly cloudy 10 - - - -
19/01:30am 10.0 WNW 10 14 1001.5 - 8.4 - Partly cloudy 10 - - - -
19/01:14am 10.1 WNW 14 21 1001.5 - 8.4 - Partly cloudy 10 - - - -
19/01:13am 10.2 WNW 14 22 1001.5 - 8.4 - Partly cloudy 10 - - - -
19/01:00am 10.3 NW 17 22 1001.4 - 8.4 - Partly cloudy 4 - - - -
19/12:55am 10.4 NW 17 22 1001.4 - 8.4 - Partly cloudy 5 - - - -
19/12:45am 10.9 NW 17 25 1001.4 - 8.4 - Partly cloudy 9 - - - -
19/12:30am 10.9 NNW 17 25 1001.4 - 8.4 - Partly cloudy 9 - - - -
19/12:02am 10.6 NNW 20 30 1001.7 - 8.4 - Partly cloudy 9 - - - -
19/12:00am 10.5 NNW 18 27 1001.9 - 8.4 Recent precip. Cloudy 9 - - - -
 
Date/Time
EST
Temp
°C
Wind Pressure Rain since
9am
mm
Weather Cloud Vis
km
Sea
Height
m
Swell
Dir  Spd
kts
Gust
kts
hPa Trend Height
m
Period
s
Dir
18/11:31pm 11.1 NNW 15 25 1002.5 - 8.2 - Partly cloudy 6 - - - -
18/11:30pm 11.0 NNW 15 22 1002.5 - 8.2 - Partly cloudy 6 - - - -
18/11:00pm 11.3 NW 13 19 1003.6 - 8.0 - Partly cloudy 10 - - - -
18/10:30pm 11.1 NNW 7 12 1004.0 - 8.0 - Partly cloudy 8 - - - -
18/10:00pm 11.4 NW 11 16 1004.6 - 8.0 - Partly cloudy 9 - - - -
18/09:30pm 11.1 NW 11 15 1004.9 - 8.0 - Partly cloudy 9 - - - -
18/09:20pm 11.2 NW 13 19 1004.9 - 8.0 - Partly cloudy 8 - - - -
18/09:00pm 11.2 NW 15 20 1005.4 - 8.0 Rain Cloudy 4 - - - -
18/08:49pm 11.2 NNW 14 21 1005.2 - 7.6 - Partly cloudy 5 - - - -
18/08:47pm 11.3 NNW 14 21 1005.1 - 7.6 - Partly cloudy 7 - - - -
18/08:42pm 11.5 NNW 14 22 1005.2 - 7.6 - Partly cloudy 7 - - - -
18/08:30pm 11.6 NNW 11 20 1005.3 - 7.4 - Partly cloudy 5 - - - -
18/08:20pm 11.6 NNW 9 14 1005.3 - 6.8 - Partly cloudy 5 - - - -
18/08:10pm 11.4 NNW 6 8 1005.4 - 6.0 - Partly cloudy 5 - - - -
18/08:01pm 11.4 NW 7 10 1005.4 - 5.8 - Partly cloudy 6 - - - -
18/08:00pm 11.4 NW 7 10 1005.4 - 5.8 - Partly cloudy 6 - - - -
18/07:44pm 11.5 NW 9 13 1005.6 - 5.2 - Partly cloudy 5 - - - -
18/07:30pm 11.5 NW 9 13 1005.3 - 4.8 - Partly cloudy 7 - - - -
18/07:00pm 11.6 NNW 6 10 1005.5 - 4.0 - Partly cloudy 8 - - - -
18/06:30pm 11.9 NW 9 13 1005.5 - 3.6 - Cloudy 9 - - - -
18/06:00pm 12.0 NW 10 14 1005.5 - 3.6 - Cloudy 10 - - - -
18/05:30pm 12.0 NW 11 16 1005.9 - 3.6 - Partly cloudy 10 - - - -
18/05:00pm 11.8 NW 9 14 1006.3 - 3.6 - Partly cloudy 9 - - - -
18/04:30pm 10.9 SE 4 6 1005.9 - 3.4 - Partly cloudy 8 - - - -
18/04:00pm 10.9 ESE 5 6 1006.0 - 3.2 - Cloudy 8 - - - -
18/03:30pm 10.9 E 5 7 1006.1 - 2.6 - Cloudy 7 - - - -
18/03:28pm 11.0 E 5 7 1006.3 - 2.6 - Cloudy 7 - - - -
18/03:00pm 11.1 ENE 5 7 1007.0 - 1.6 Rain Partly cloudy 5 - - - -
18/02:53pm 11.2 ENE 4 7 1007.1 - 1.2 - Partly cloudy 5 - - - -
18/02:30pm 11.5 ESE 6 8 1007.1 - 0.8 - Partly cloudy 6 - - - -
18/02:00pm 12.5 E 2 6 1007.3 - 0.0 - Partly cloudy 10 - - - -
18/01:30pm 13.1 ENE 4 7 1007.7 - 0.0 - Partly cloudy 10 - - - -
18/01:00pm 12.9 ESE 1 5 1008.0 - 0.0 - Cloudy 10 - - - -
18/12:30pm 12.6 ESE 7 9 1008.4 - 0.0 - Cloudy 10 - - - -
18/12:00pm 12.6 E 6 9 1009.0 - 0.0 - Mostly cloudy 10 - - - -
18/11:30am 13.0 ENE 5 8 1009.7 - 0.0 - Cloudy 10 - - - -
18/11:00am 13.0 ENE 5 7 1010.0 - 0.0 - Partly cloudy 10 - - - -
18/10:30am 12.8 ESE 6 9 1010.7 - 0.0 - Partly cloudy 10 - - - -
18/10:00am 12.0 ESE 9 12 1011.1 - 0.0 - Partly cloudy 10 - - - -
18/09:30am 11.7 ESE 9 13 1011.7 - 0.0 - Cloudy 8 - - - -
18/09:00am 12.0 E 8 12 1012.0 - 0.0 - Cloudy 10 - - - -
18/08:30am 11.6 ESE 11 15 1012.3 - 0.0 - Cloudy 9 - - - -
18/08:00am 11.4 ESE 11 15 1012.7 - 0.0 - Partly cloudy 8 - - - -
18/07:30am 11.2 ESE 12 15 1013.0 - 0.0 - - 7 - - - -
18/07:00am 11.2 ESE 11 15 1013.1 - 0.0 - - 9 - - - -
18/06:30am 10.7 ESE 10 15 1013.3 - 0.0 - - 9 - - - -
18/06:00am 10.4 ESE 9 13 1013.5 - 0.0 - Cloudy 9 - - - -
18/05:30am 10.3 E 8 10 1013.6 - 0.0 - - 10 - - - -
18/05:00am 10.2 ESE 9 11 1013.8 - 0.0 - - 10 - - - -
18/04:30am 10.2 ESE 9 14 1014.0 - 0.0 - - 10 - - - -
18/04:00am 10.2 ESE 11 15 1014.4 - 0.0 - - 10 - - - -
18/03:30am 10.1 E 7 11 1014.6 - 0.0 - - 10 - - - -
18/03:00am 10.1 E 7 11 1015.0 - 0.0 - Mostly clear 10 - - - -
18/02:30am 10.1 E 7 13 1015.4 - 0.0 - Partly cloudy 9 - - - -
18/02:00am 10.1 ESE 7 10 1015.8 - 0.0 - - 9 - - - -
18/01:30am 10.2 ESE 10 12 1016.3 - 0.0 - Partly cloudy 9 - - - -
18/01:00am 10.0 ESE 8 11 1016.9 - 0.0 - Partly cloudy 10 - - - -
18/12:44am 9.6 ESE 8 10 1017.1 - 0.0 - Partly cloudy 10 - - - -
18/12:30am 9.4 ESE 7 8 1017.4 - 0.0 - Partly cloudy 10 - - - -
18/12:00am 10.7 E 5 7 1017.8 - 0.0 - Cloudy 10 - - - -
 
Date/Time
EST
Temp
°C
Wind Pressure Rain since
9am
mm
Weather Cloud Vis
km
Sea
Height
m
Swell
Dir  Spd
kts
Gust
kts
hPa Trend Height
m
Period
s
Dir
17/11:30pm 10.7 ENE 7 10 1017.9 - 0.0 - Partly cloudy 10 - - - -
17/11:00pm 10.8 ENE 7 8 1018.2 - 0.0 - Cloudy 10 - - - -
17/10:57pm 10.8 ENE 7 9 1018.3 - 0.0 - Cloudy 10 - - - -
17/10:30pm 10.5 ENE 9 12 1018.4 - 0.0 - Cloudy 10 - - - -
17/10:00pm 7.8 ESE 4 6 1018.6 - 0.0 - Cloudy 10 - - - -
17/09:30pm 5.3 SSE 5 5 1018.9 - 0.0 - - 10 - - - -
17/09:00pm 5.8 SSE 4 5 1019.3 - 0.0 - - 10 - - - -
17/08:30pm 6.1 SSE 4 5 1019.5 - 0.0 - - 10 - - - -
17/08:00pm 7.4 SSE 1 4 1019.6 - 0.0 - - 10 - - - -
17/07:30pm 9.8 N 3 5 1019.7 - 0.0 - - 10 - - - -
17/07:00pm 10.1 N 6 9 1019.5 - 0.0 - Partly cloudy 10 - - - -
17/06:30pm 10.2 N 5 10 1019.9 - 0.0 - Partly cloudy 10 - - - -
17/06:00pm 10.4 N 5 8 1019.9 - 0.0 - Cloudy 10 - - - -
17/05:30pm 10.7 N 7 10 1019.9 - 0.0 - Partly cloudy 10 - - - -
17/05:00pm 11.1 N 9 12 1019.9 - 0.0 - Partly cloudy 10 - - - -
17/04:30pm 11.4 NNW 9 12 1020.2 - 0.0 - Partly cloudy 10 - - - -
17/04:00pm 11.7 NW 10 12 1020.1 - 0.0 - Cloudy 10 - - - -
17/03:30pm 11.7 NNW 11 15 1020.2 - 0.0 - Cloudy 10 - - - -
17/03:00pm 12.1 NW 12 17 1020.6 - 0.0 - Mostly clear 10 - - - -
17/02:30pm 13.1 NNW 11 16 1020.7 - 0.0 - Partly cloudy 10 - - - -
17/02:00pm 12.2 NNW 13 16 1021.0 - 0.0 - Cloudy 10 - - - -
17/01:30pm 12.7 NW 13 19 1021.6 - 0.0 - Cloudy 10 - - - -
17/01:00pm 13.1 NW 12 17 1022.1 - 0.0 - Cloudy 10 - - - -
17/12:30pm 13.0 NNW 14 21 1022.5 - 0.0 - Cloudy 10 - - - -
17/12:00pm 13.4 NNW 13 17 1022.9 - 0.0 - Mostly cloudy 10 - - - -
17/11:30am 13.2 NNW 12 17 1023.1 - 0.0 - Cloudy 10 - - - -
17/11:00am 12.5 WNW 10 13 1023.6 - 0.0 - Partly cloudy 10 - - - -
17/10:30am 11.9 NW 10 17 1023.9 - 0.0 - Cloudy 10 - - - -
17/10:00am 10.8 NNW 4 6 1024.1 - 0.0 - Cloudy 10 - - - -
17/09:30am 10.1 WNW 5 7 1024.4 - 0.0 - Partly cloudy 10 - - - -
17/09:00am 9.0 WNW 4 6 1024.5 - 1.2 - - 10 - - - -
17/08:30am 7.1 WNW 5 6 1024.6 - 1.2 - - 10 - - - -
17/08:00am 5.2 WNW 5 6 1024.5 - 1.2 - - 10 - - - -
17/07:30am 3.2 WNW 5 6 1024.5 - 1.2 - - 10 - - - -
17/07:00am 1.7 W 4 5 1024.4 - 1.2 - - 10 - - - -
17/06:30am 1.0 W 6 7 1024.2 - 1.2 - - 10 - - - -
17/06:00am 1.1 W 5 6 1024.0 - 1.2 - Cloudy 10 - - - -
17/05:30am 1.1 WSW 5 6 1024.0 - 1.2 - - 10 - - - -
17/05:00am 0.1 WSW 5 6 1023.9 - 1.2 - - 10 - - - -

Other Formats:

Comma delimited format used in spreadsheet applications
http://www.bom.gov.au/fwo/IDT60701/IDT60701.95957.axf

JavaScript Object Notation format (JSON) in row-major order
http://www.bom.gov.au/fwo/IDT60701/IDT60701.95957.json